sensor_id;sensor_type;location;lat;lon;timestamp;temperature;humidity
14172;DHT22;7165;52.388;4.928;2022-11-15T00:00:10;7.50;99.90
14172;DHT22;7165;52.388;4.928;2022-11-15T00:02:37;7.50;99.90
14172;DHT22;7165;52.388;4.928;2022-11-15T00:05:05;7.50;99.90
14172;DHT22;7165;52.388;4.928;2022-11-15T00:07:32;7.60;99.90
14172;DHT22;7165;52.388;4.928;2022-11-15T00:09:59;7.50;99.90
14172;DHT22;7165;52.388;4.928;2022-11-15T00:12:27;7.60;99.90
14172;DHT22;7165;52.388;4.928;2022-11-15T00:14:53;7.60;99.90
14172;DHT22;7165;52.388;4.928;2022-11-15T00:17:20;7.60;99.90
14172;DHT22;7165;52.388;4.928;2022-11-15T00:19:46;7.60;99.90
14172;DHT22;7165;52.388;4.928;2022-11-15T00:22:16;7.60;99.90
14172;DHT22;7165;52.388;4.928;2022-11-15T00:24:42;7.60;99.90
14172;DHT22;7165;52.388;4.928;2022-11-15T00:27:09;7.60;99.90
14172;DHT22;7165;52.388;4.928;2022-11-15T00:29:35;7.70;99.90
14172;DHT22;7165;52.388;4.928;2022-11-15T00:32:04;7.70;99.90
14172;DHT22;7165;52.388;4.928;2022-11-15T00:34:30;7.70;99.90
14172;DHT22;7165;52.388;4.928;2022-11-15T00:36:57;7.70;99.90
14172;DHT22;7165;52.388;4.928;2022-11-15T00:39:25;7.70;99.90
14172;DHT22;7165;52.388;4.928;2022-11-15T00:41:52;7.70;99.90
14172;DHT22;7165;52.388;4.928;2022-11-15T00:44:18;7.70;99.90
14172;DHT22;7165;52.388;4.928;2022-11-15T00:46:45;7.70;99.90
14172;DHT22;7165;52.388;4.928;2022-11-15T00:49:12;7.70;99.90
14172;DHT22;7165;52.388;4.928;2022-11-15T00:51:38;7.80;99.90
14172;DHT22;7165;52.388;4.928;2022-11-15T00:54:05;7.80;99.90
14172;DHT22;7165;52.388;4.928;2022-11-15T00:56:33;7.80;99.90
14172;DHT22;7165;52.388;4.928;2022-11-15T00:58:59;7.80;99.90
14172;DHT22;7165;52.388;4.928;2022-11-15T01:01:26;7.80;99.90
14172;DHT22;7165;52.388;4.928;2022-11-15T01:03:53;7.80;99.90
14172;DHT22;7165;52.388;4.928;2022-11-15T01:06:19;7.80;99.90
14172;DHT22;7165;52.388;4.928;2022-11-15T01:08:46;7.80;99.90
14172;DHT22;7165;52.388;4.928;2022-11-15T01:11:13;7.80;99.90
14172;DHT22;7165;52.388;4.928;2022-11-15T01:13:41;7.70;99.90
14172;DHT22;7165;52.388;4.928;2022-11-15T01:16:08;7.80;99.90
14172;DHT22;7165;52.388;4.928;2022-11-15T01:18:35;7.70;99.90
14172;DHT22;7165;52.388;4.928;2022-11-15T01:21:06;7.80;99.90
14172;DHT22;7165;52.388;4.928;2022-11-15T01:23:33;7.80;99.90
14172;DHT22;7165;52.388;4.928;2022-11-15T01:25:59;7.80;99.90
14172;DHT22;7165;52.388;4.928;2022-11-15T01:28:30;7.80;99.90
14172;DHT22;7165;52.388;4.928;2022-11-15T01:30:58;7.80;99.90
14172;DHT22;7165;52.388;4.928;2022-11-15T01:33:25;7.80;99.90
14172;DHT22;7165;52.388;4.928;2022-11-15T01:35:52;7.90;99.90
14172;DHT22;7165;52.388;4.928;2022-11-15T01:38:19;7.90;99.90
14172;DHT22;7165;52.388;4.928;2022-11-15T01:40:45;7.90;99.90
14172;DHT22;7165;52.388;4.928;2022-11-15T01:43:23;7.90;99.90
14172;DHT22;7165;52.388;4.928;2022-11-15T01:45:52;7.90;99.90
14172;DHT22;7165;52.388;4.928;2022-11-15T01:48:22;7.90;99.90
14172;DHT22;7165;52.388;4.928;2022-11-15T01:50:50;7.90;99.90
14172;DHT22;7165;52.388;4.928;2022-11-15T01:53:19;7.90;99.90
14172;DHT22;7165;52.388;4.928;2022-11-15T01:55:47;7.90;99.90
14172;DHT22;7165;52.388;4.928;2022-11-15T01:58:13;8.00;99.90
14172;DHT22;7165;52.388;4.928;2022-11-15T02:00:40;8.00;99.90
14172;DHT22;7165;52.388;4.928;2022-11-15T02:03:07;8.00;99.90
14172;DHT22;7165;52.388;4.928;2022-11-15T02:05:36;8.10;99.90
14172;DHT22;7165;52.388;4.928;2022-11-15T02:08:03;8.10;99.90
14172;DHT22;7165;52.388;4.928;2022-11-15T02:10:30;8.10;99.90
14172;DHT22;7165;52.388;4.928;2022-11-15T02:12:59;8.10;99.90
14172;DHT22;7165;52.388;4.928;2022-11-15T02:15:32;8.20;99.90
14172;DHT22;7165;52.388;4.928;2022-11-15T02:18:10;8.20;99.90
14172;DHT22;7165;52.388;4.928;2022-11-15T02:20:55;8.20;99.90
14172;DHT22;7165;52.388;4.928;2022-11-15T02:26:48;8.30;99.90
14172;DHT22;7165;52.388;4.928;2022-11-15T02:29:26;8.40;99.90
14172;DHT22;7165;52.388;4.928;2022-11-15T02:32:03;8.40;99.90
14172;DHT22;7165;52.388;4.928;2022-11-15T02:34:37;8.40;99.90
14172;DHT22;7165;52.388;4.928;2022-11-15T02:37:11;8.40;99.90
14172;DHT22;7165;52.388;4.928;2022-11-15T02:39:46;8.40;99.90
14172;DHT22;7165;52.388;4.928;2022-11-15T02:42:19;8.50;99.90
14172;DHT22;7165;52.388;4.928;2022-11-15T02:45:07;8.50;99.90
14172;DHT22;7165;52.388;4.928;2022-11-15T02:47:43;8.50;99.90
14172;DHT22;7165;52.388;4.928;2022-11-15T02:50:11;8.50;99.90
14172;DHT22;7165;52.388;4.928;2022-11-15T02:52:39;8.60;99.90
14172;DHT22;7165;52.388;4.928;2022-11-15T02:55:26;8.60;99.90
14172;DHT22;7165;52.388;4.928;2022-11-15T02:58:00;8.60;99.90
14172;DHT22;7165;52.388;4.928;2022-11-15T03:00:34;8.70;99.90
14172;DHT22;7165;52.388;4.928;2022-11-15T03:03:23;8.70;99.90
14172;DHT22;7165;52.388;4.928;2022-11-15T03:05:58;8.70;99.90
14172;DHT22;7165;52.388;4.928;2022-11-15T03:08:32;8.80;99.90
14172;DHT22;7165;52.388;4.928;2022-11-15T03:11:07;8.80;99.90
14172;DHT22;7165;52.388;4.928;2022-11-15T03:13:38;8.80;99.90
14172;DHT22;7165;52.388;4.928;2022-11-15T03:16:10;8.90;99.90
14172;DHT22;7165;52.388;4.928;2022-11-15T03:18:42;9.00;99.90
14172;DHT22;7165;52.388;4.928;2022-11-15T03:21:11;9.00;99.90
14172;DHT22;7165;52.388;4.928;2022-11-15T03:23:39;9.10;99.90
14172;DHT22;7165;52.388;4.928;2022-11-15T03:26:08;9.20;99.90
14172;DHT22;7165;52.388;4.928;2022-11-15T03:28:38;9.20;99.90
14172;DHT22;7165;52.388;4.928;2022-11-15T03:31:06;9.20;99.90
14172;DHT22;7165;52.388;4.928;2022-11-15T03:33:49;9.20;99.90
14172;DHT22;7165;52.388;4.928;2022-11-15T03:36:17;9.30;99.90
14172;DHT22;7165;52.388;4.928;2022-11-15T03:38:44;9.30;99.90
14172;DHT22;7165;52.388;4.928;2022-11-15T03:41:16;9.30;99.90
14172;DHT22;7165;52.388;4.928;2022-11-15T03:43:52;9.30;99.90
14172;DHT22;7165;52.388;4.928;2022-11-15T03:46:24;9.30;99.90
14172;DHT22;7165;52.388;4.928;2022-11-15T03:48:59;9.30;99.90
14172;DHT22;7165;52.388;4.928;2022-11-15T03:51:26;9.40;99.90
14172;DHT22;7165;52.388;4.928;2022-11-15T03:53:53;9.40;99.90
14172;DHT22;7165;52.388;4.928;2022-11-15T03:56:20;9.50;99.90
14172;DHT22;7165;52.388;4.928;2022-11-15T03:58:46;9.50;99.90
14172;DHT22;7165;52.388;4.928;2022-11-15T04:01:13;9.50;99.90
14172;DHT22;7165;52.388;4.928;2022-11-15T04:03:39;9.50;99.90
14172;DHT22;7165;52.388;4.928;2022-11-15T04:06:07;9.60;99.90
14172;DHT22;7165;52.388;4.928;2022-11-15T04:08:34;9.60;99.90
14172;DHT22;7165;52.388;4.928;2022-11-15T04:11:01;9.60;99.90
14172;DHT22;7165;52.388;4.928;2022-11-15T04:13:27;9.60;99.90
14172;DHT22;7165;52.388;4.928;2022-11-15T04:15:54;9.70;99.90
14172;DHT22;7165;52.388;4.928;2022-11-15T04:18:21;9.70;99.90
14172;DHT22;7165;52.388;4.928;2022-11-15T04:20:48;9.70;99.90
14172;DHT22;7165;52.388;4.928;2022-11-15T04:23:33;9.70;99.90
14172;DHT22;7165;52.388;4.928;2022-11-15T04:26:19;9.80;99.90
14172;DHT22;7165;52.388;4.928;2022-11-15T04:28:46;9.80;99.90
14172;DHT22;7165;52.388;4.928;2022-11-15T04:31:28;9.80;99.90
14172;DHT22;7165;52.388;4.928;2022-11-15T04:33:55;9.90;99.90
14172;DHT22;7165;52.388;4.928;2022-11-15T04:36:22;9.90;99.90
14172;DHT22;7165;52.388;4.928;2022-11-15T04:39:07;9.90;99.90
14172;DHT22;7165;52.388;4.928;2022-11-15T04:41:34;10.00;99.90
14172;DHT22;7165;52.388;4.928;2022-11-15T04:44:01;10.00;99.90
14172;DHT22;7165;52.388;4.928;2022-11-15T04:46:27;10.10;99.90
14172;DHT22;7165;52.388;4.928;2022-11-15T04:48:54;10.10;99.90
14172;DHT22;7165;52.388;4.928;2022-11-15T04:51:21;10.10;99.90
14172;DHT22;7165;52.388;4.928;2022-11-15T04:53:48;10.10;99.90
14172;DHT22;7165;52.388;4.928;2022-11-15T04:56:15;10.20;99.90
14172;DHT22;7165;52.388;4.928;2022-11-15T04:58:42;10.20;99.90
14172;DHT22;7165;52.388;4.928;2022-11-15T05:01:10;10.20;99.90
14172;DHT22;7165;52.388;4.928;2022-11-15T05:03:37;10.20;99.90
14172;DHT22;7165;52.388;4.928;2022-11-15T05:06:21;10.20;99.90
14172;DHT22;7165;52.388;4.928;2022-11-15T05:08:48;10.20;99.90
14172;DHT22;7165;52.388;4.928;2022-11-15T05:11:16;10.30;99.90
14172;DHT22;7165;52.388;4.928;2022-11-15T05:13:43;10.30;99.90
14172;DHT22;7165;52.388;4.928;2022-11-15T05:16:10;10.30;99.90
14172;DHT22;7165;52.388;4.928;2022-11-15T05:18:36;10.30;99.90
14172;DHT22;7165;52.388;4.928;2022-11-15T05:21:07;10.30;99.90
14172;DHT22;7165;52.388;4.928;2022-11-15T05:23:34;10.40;99.90
14172;DHT22;7165;52.388;4.928;2022-11-15T05:26:01;10.50;99.90
14172;DHT22;7165;52.388;4.928;2022-11-15T05:28:30;10.40;99.90
14172;DHT22;7165;52.388;4.928;2022-11-15T05:31:00;10.50;99.90
14172;DHT22;7165;52.388;4.928;2022-11-15T05:33:27;10.50;99.90
14172;DHT22;7165;52.388;4.928;2022-11-15T05:35:57;10.50;99.90
14172;DHT22;7165;52.388;4.928;2022-11-15T05:38:26;10.60;99.90
14172;DHT22;7165;52.388;4.928;2022-11-15T05:40:53;10.60;99.90
14172;DHT22;7165;52.388;4.928;2022-11-15T05:43:20;10.60;99.90
14172;DHT22;7165;52.388;4.928;2022-11-15T05:45:48;10.70;99.90
14172;DHT22;7165;52.388;4.928;2022-11-15T05:48:15;10.70;99.90
14172;DHT22;7165;52.388;4.928;2022-11-15T05:50:44;10.70;99.90
14172;DHT22;7165;52.388;4.928;2022-11-15T05:53:14;10.70;99.90
14172;DHT22;7165;52.388;4.928;2022-11-15T05:55:41;10.70;99.90
14172;DHT22;7165;52.388;4.928;2022-11-15T05:58:08;10.80;99.90
14172;DHT22;7165;52.388;4.928;2022-11-15T06:00:35;10.80;99.90
14172;DHT22;7165;52.388;4.928;2022-11-15T06:03:03;10.80;99.90
14172;DHT22;7165;52.388;4.928;2022-11-15T06:05:30;10.80;99.90
14172;DHT22;7165;52.388;4.928;2022-11-15T06:07:57;10.80;99.90
14172;DHT22;7165;52.388;4.928;2022-11-15T06:10:24;10.80;99.90
14172;DHT22;7165;52.388;4.928;2022-11-15T06:12:56;10.80;99.90
14172;DHT22;7165;52.388;4.928;2022-11-15T06:15:23;10.80;99.90
14172;DHT22;7165;52.388;4.928;2022-11-15T06:17:50;10.80;99.90
14172;DHT22;7165;52.388;4.928;2022-11-15T06:20:18;10.80;99.90
14172;DHT22;7165;52.388;4.928;2022-11-15T06:22:45;10.70;99.90
14172;DHT22;7165;52.388;4.928;2022-11-15T06:25:11;10.70;99.90
14172;DHT22;7165;52.388;4.928;2022-11-15T06:27:38;10.80;99.90
14172;DHT22;7165;52.388;4.928;2022-11-15T06:30:06;10.70;99.90
14172;DHT22;7165;52.388;4.928;2022-11-15T06:32:32;10.70;99.90
14172;DHT22;7165;52.388;4.928;2022-11-15T06:34:59;10.70;99.90
14172;DHT22;7165;52.388;4.928;2022-11-15T06:37:27;10.70;99.90
14172;DHT22;7165;52.388;4.928;2022-11-15T06:39:54;10.70;99.90
14172;DHT22;7165;52.388;4.928;2022-11-15T06:42:20;10.80;99.90
14172;DHT22;7165;52.388;4.928;2022-11-15T06:44:47;10.80;99.90
14172;DHT22;7165;52.388;4.928;2022-11-15T06:47:13;10.80;99.90
14172;DHT22;7165;52.388;4.928;2022-11-15T06:49:40;10.80;99.90
14172;DHT22;7165;52.388;4.928;2022-11-15T06:52:07;10.80;99.90
14172;DHT22;7165;52.388;4.928;2022-11-15T06:54:35;10.80;99.90
14172;DHT22;7165;52.388;4.928;2022-11-15T06:57:01;10.80;99.90
14172;DHT22;7165;52.388;4.928;2022-11-15T06:59:30;10.80;99.90
14172;DHT22;7165;52.388;4.928;2022-11-15T07:01:57;10.80;99.90
14172;DHT22;7165;52.388;4.928;2022-11-15T07:04:23;10.80;99.90
14172;DHT22;7165;52.388;4.928;2022-11-15T07:06:50;10.80;99.90
14172;DHT22;7165;52.388;4.928;2022-11-15T07:09:17;10.80;99.90
14172;DHT22;7165;52.388;4.928;2022-11-15T07:11:45;10.80;99.90
14172;DHT22;7165;52.388;4.928;2022-11-15T07:14:11;10.90;99.90
14172;DHT22;7165;52.388;4.928;2022-11-15T07:16:38;10.90;99.90
14172;DHT22;7165;52.388;4.928;2022-11-15T07:19:05;10.90;99.90
14172;DHT22;7165;52.388;4.928;2022-11-15T07:21:32;10.90;99.90
14172;DHT22;7165;52.388;4.928;2022-11-15T07:23:59;10.90;99.90
14172;DHT22;7165;52.388;4.928;2022-11-15T07:26:26;10.90;99.90
14172;DHT22;7165;52.388;4.928;2022-11-15T07:28:54;10.90;99.90
14172;DHT22;7165;52.388;4.928;2022-11-15T07:31:20;10.80;99.90
14172;DHT22;7165;52.388;4.928;2022-11-15T07:33:47;10.80;99.90
14172;DHT22;7165;52.388;4.928;2022-11-15T07:36:14;10.80;99.90
14172;DHT22;7165;52.388;4.928;2022-11-15T07:38:41;10.80;99.90
14172;DHT22;7165;52.388;4.928;2022-11-15T07:41:07;10.80;99.90
14172;DHT22;7165;52.388;4.928;2022-11-15T07:43:34;10.80;99.90
14172;DHT22;7165;52.388;4.928;2022-11-15T07:46:06;10.80;99.90
14172;DHT22;7165;52.388;4.928;2022-11-15T07:48:34;10.80;99.90
14172;DHT22;7165;52.388;4.928;2022-11-15T07:51:01;10.80;99.90
14172;DHT22;7165;52.388;4.928;2022-11-15T07:53:28;10.80;99.90
14172;DHT22;7165;52.388;4.928;2022-11-15T07:55:55;10.80;99.90
14172;DHT22;7165;52.388;4.928;2022-11-15T07:58:21;10.80;99.90
14172;DHT22;7165;52.388;4.928;2022-11-15T08:00:48;10.80;99.90
14172;DHT22;7165;52.388;4.928;2022-11-15T08:03:16;10.90;99.90
14172;DHT22;7165;52.388;4.928;2022-11-15T08:05:49;10.90;99.90
14172;DHT22;7165;52.388;4.928;2022-11-15T08:08:16;10.80;99.90
14172;DHT22;7165;52.388;4.928;2022-11-15T08:10:43;10.80;99.90
14172;DHT22;7165;52.388;4.928;2022-11-15T08:13:11;10.80;99.90
14172;DHT22;7165;52.388;4.928;2022-11-15T08:15:38;10.80;99.90
14172;DHT22;7165;52.388;4.928;2022-11-15T08:18:06;10.80;99.90
14172;DHT22;7165;52.388;4.928;2022-11-15T08:20:34;10.80;99.90
14172;DHT22;7165;52.388;4.928;2022-11-15T08:23:03;10.90;99.90
14172;DHT22;7165;52.388;4.928;2022-11-15T08:25:31;10.90;99.90
14172;DHT22;7165;52.388;4.928;2022-11-15T08:28:01;11.00;99.90
14172;DHT22;7165;52.388;4.928;2022-11-15T08:30:28;11.00;99.90
14172;DHT22;7165;52.388;4.928;2022-11-15T08:32:57;11.10;99.90
14172;DHT22;7165;52.388;4.928;2022-11-15T08:35:24;11.10;99.90
14172;DHT22;7165;52.388;4.928;2022-11-15T08:37:53;11.20;99.90
14172;DHT22;7165;52.388;4.928;2022-11-15T08:40:20;11.20;99.90
14172;DHT22;7165;52.388;4.928;2022-11-15T08:42:48;11.20;99.90
14172;DHT22;7165;52.388;4.928;2022-11-15T08:45:14;11.30;99.90
14172;DHT22;7165;52.388;4.928;2022-11-15T08:47:41;11.30;99.90
14172;DHT22;7165;52.388;4.928;2022-11-15T08:50:08;11.30;99.90
14172;DHT22;7165;52.388;4.928;2022-11-15T08:52:35;11.30;99.90
14172;DHT22;7165;52.388;4.928;2022-11-15T08:55:04;11.40;99.90
14172;DHT22;7165;52.388;4.928;2022-11-15T08:57:31;11.40;99.90
14172;DHT22;7165;52.388;4.928;2022-11-15T08:59:58;11.50;99.90
14172;DHT22;7165;52.388;4.928;2022-11-15T09:02:24;11.50;99.90
14172;DHT22;7165;52.388;4.928;2022-11-15T09:04:51;11.50;99.90
14172;DHT22;7165;52.388;4.928;2022-11-15T09:07:18;11.60;99.90
14172;DHT22;7165;52.388;4.928;2022-11-15T09:09:44;11.60;99.90
14172;DHT22;7165;52.388;4.928;2022-11-15T09:12:13;11.60;99.90
14172;DHT22;7165;52.388;4.928;2022-11-15T09:14:39;11.70;99.90
14172;DHT22;7165;52.388;4.928;2022-11-15T09:17:07;11.80;99.90
14172;DHT22;7165;52.388;4.928;2022-11-15T09:19:34;11.80;99.90
14172;DHT22;7165;52.388;4.928;2022-11-15T09:22:04;11.90;99.90
14172;DHT22;7165;52.388;4.928;2022-11-15T09:24:31;11.90;99.90
14172;DHT22;7165;52.388;4.928;2022-11-15T09:26:58;12.00;99.90
14172;DHT22;7165;52.388;4.928;2022-11-15T09:29:26;12.10;99.90
14172;DHT22;7165;52.388;4.928;2022-11-15T09:31:53;12.10;99.90
14172;DHT22;7165;52.388;4.928;2022-11-15T09:34:19;12.10;99.90
14172;DHT22;7165;52.388;4.928;2022-11-15T09:36:47;12.20;99.90
14172;DHT22;7165;52.388;4.928;2022-11-15T09:39:13;12.30;99.90
14172;DHT22;7165;52.388;4.928;2022-11-15T09:41:50;12.30;99.90
14172;DHT22;7165;52.388;4.928;2022-11-15T09:44:29;12.30;99.90
14172;DHT22;7165;52.388;4.928;2022-11-15T09:47:10;12.40;99.90
14172;DHT22;7165;52.388;4.928;2022-11-15T09:49:44;12.30;99.90
14172;DHT22;7165;52.388;4.928;2022-11-15T09:52:13;12.40;99.90
14172;DHT22;7165;52.388;4.928;2022-11-15T09:54:43;12.40;99.90
14172;DHT22;7165;52.388;4.928;2022-11-15T09:57:14;12.50;99.90
14172;DHT22;7165;52.388;4.928;2022-11-15T09:59:54;12.50;99.90
14172;DHT22;7165;52.388;4.928;2022-11-15T10:02:36;12.60;99.90
14172;DHT22;7165;52.388;4.928;2022-11-15T10:05:11;12.60;99.90
14172;DHT22;7165;52.388;4.928;2022-11-15T10:07:46;12.60;99.90
14172;DHT22;7165;52.388;4.928;2022-11-15T10:10:23;12.70;99.90
14172;DHT22;7165;52.388;4.928;2022-11-15T10:12:51;12.70;99.90
14172;DHT22;7165;52.388;4.928;2022-11-15T10:15:21;12.70;99.90
14172;DHT22;7165;52.388;4.928;2022-11-15T10:18:08;12.70;99.90
14172;DHT22;7165;52.388;4.928;2022-11-15T10:20:47;12.70;99.90
14172;DHT22;7165;52.388;4.928;2022-11-15T10:23:15;12.70;99.90
14172;DHT22;7165;52.388;4.928;2022-11-15T10:25:42;12.80;99.90
14172;DHT22;7165;52.388;4.928;2022-11-15T10:28:13;12.80;99.90
14172;DHT22;7165;52.388;4.928;2022-11-15T10:30:43;12.80;99.90
14172;DHT22;7165;52.388;4.928;2022-11-15T10:33:26;12.70;99.90
14172;DHT22;7165;52.388;4.928;2022-11-15T10:36:15;12.70;99.90
14172;DHT22;7165;52.388;4.928;2022-11-15T10:38:58;12.80;99.90
14172;DHT22;7165;52.388;4.928;2022-11-15T10:41:35;12.70;99.90
14172;DHT22;7165;52.388;4.928;2022-11-15T10:44:19;12.70;99.90
14172;DHT22;7165;52.388;4.928;2022-11-15T10:46:48;12.80;99.90
14172;DHT22;7165;52.388;4.928;2022-11-15T10:49:30;12.80;99.90
14172;DHT22;7165;52.388;4.928;2022-11-15T10:52:02;12.80;99.90
14172;DHT22;7165;52.388;4.928;2022-11-15T10:54:34;12.80;99.90
14172;DHT22;7165;52.388;4.928;2022-11-15T10:57:05;12.90;99.90
14172;DHT22;7165;52.388;4.928;2022-11-15T10:59:35;12.90;99.90
14172;DHT22;7165;52.388;4.928;2022-11-15T11:02:32;12.90;99.90
14172;DHT22;7165;52.388;4.928;2022-11-15T11:05:01;12.90;99.90
14172;DHT22;7165;52.388;4.928;2022-11-15T11:07:29;13.00;99.90
14172;DHT22;7165;52.388;4.928;2022-11-15T11:09:58;13.10;99.90
14172;DHT22;7165;52.388;4.928;2022-11-15T11:12:30;13.20;99.90
14172;DHT22;7165;52.388;4.928;2022-11-15T11:14:58;13.20;99.90
14172;DHT22;7165;52.388;4.928;2022-11-15T11:17:38;13.30;99.90
14172;DHT22;7165;52.388;4.928;2022-11-15T11:20:17;13.40;99.90
14172;DHT22;7165;52.388;4.928;2022-11-15T11:23:02;13.40;99.90
14172;DHT22;7165;52.388;4.928;2022-11-15T11:25:33;13.40;99.90
14172;DHT22;7165;52.388;4.928;2022-11-15T11:28:17;13.40;99.90
14172;DHT22;7165;52.388;4.928;2022-11-15T11:30:54;13.40;99.90
14172;DHT22;7165;52.388;4.928;2022-11-15T11:33:29;13.40;99.90
14172;DHT22;7165;52.388;4.928;2022-11-15T11:36:05;13.30;99.90
14172;DHT22;7165;52.388;4.928;2022-11-15T11:38:44;13.20;99.90
14172;DHT22;7165;52.388;4.928;2022-11-15T11:41:21;13.10;99.90
14172;DHT22;7165;52.388;4.928;2022-11-15T11:43:59;13.10;99.90
14172;DHT22;7165;52.388;4.928;2022-11-15T11:46:48;13.10;99.90
14172;DHT22;7165;52.388;4.928;2022-11-15T11:49:20;13.20;99.90
14172;DHT22;7165;52.388;4.928;2022-11-15T11:51:53;13.10;99.90
14172;DHT22;7165;52.388;4.928;2022-11-15T11:54:24;13.20;99.90
14172;DHT22;7165;52.388;4.928;2022-11-15T11:56:53;13.20;99.90
14172;DHT22;7165;52.388;4.928;2022-11-15T11:59:28;13.30;99.90
14172;DHT22;7165;52.388;4.928;2022-11-15T12:01:57;13.30;99.90
14172;DHT22;7165;52.388;4.928;2022-11-15T12:04:32;13.30;99.90
14172;DHT22;7165;52.388;4.928;2022-11-15T12:07:08;13.30;99.90
14172;DHT22;7165;52.388;4.928;2022-11-15T12:09:43;13.30;99.90
14172;DHT22;7165;52.388;4.928;2022-11-15T12:12:13;13.40;99.90
14172;DHT22;7165;52.388;4.928;2022-11-15T12:14:46;13.40;99.90
14172;DHT22;7165;52.388;4.928;2022-11-15T12:17:17;13.40;99.90
14172;DHT22;7165;52.388;4.928;2022-11-15T12:19:47;13.30;99.90
14172;DHT22;7165;52.388;4.928;2022-11-15T12:22:20;13.30;99.90
14172;DHT22;7165;52.388;4.928;2022-11-15T12:24:54;13.30;99.90
14172;DHT22;7165;52.388;4.928;2022-11-15T12:27:30;13.40;99.90
14172;DHT22;7165;52.388;4.928;2022-11-15T12:30:02;13.30;99.90
14172;DHT22;7165;52.388;4.928;2022-11-15T12:32:32;13.30;99.90
14172;DHT22;7165;52.388;4.928;2022-11-15T12:35:02;13.30;99.90
14172;DHT22;7165;52.388;4.928;2022-11-15T12:37:51;13.40;99.90
14172;DHT22;7165;52.388;4.928;2022-11-15T12:40:28;13.40;99.90
14172;DHT22;7165;52.388;4.928;2022-11-15T12:45:52;13.50;99.90
14172;DHT22;7165;52.388;4.928;2022-11-15T12:52:06;13.40;99.90
14172;DHT22;7165;52.388;4.928;2022-11-15T12:54:53;13.40;99.90
14172;DHT22;7165;52.388;4.928;2022-11-15T12:57:29;13.30;99.90
14172;DHT22;7165;52.388;4.928;2022-11-15T12:59:57;13.30;99.90
14172;DHT22;7165;52.388;4.928;2022-11-15T13:02:29;13.30;99.90
14172;DHT22;7165;52.388;4.928;2022-11-15T13:08:08;13.40;99.90
14172;DHT22;7165;52.388;4.928;2022-11-15T13:10:35;13.40;99.90
14172;DHT22;7165;52.388;4.928;2022-11-15T13:13:02;13.50;99.90
14172;DHT22;7165;52.388;4.928;2022-11-15T13:15:45;13.60;99.90
14172;DHT22;7165;52.388;4.928;2022-11-15T13:18:41;13.60;99.90
14172;DHT22;7165;52.388;4.928;2022-11-15T13:21:23;13.60;99.90
14172;DHT22;7165;52.388;4.928;2022-11-15T13:24:14;13.60;99.90
14172;DHT22;7165;52.388;4.928;2022-11-15T13:26:42;13.70;99.90
14172;DHT22;7165;52.388;4.928;2022-11-15T13:29:16;13.70;99.90
14172;DHT22;7165;52.388;4.928;2022-11-15T13:31:44;13.70;99.90
14172;DHT22;7165;52.388;4.928;2022-11-15T13:34:26;13.80;99.90
14172;DHT22;7165;52.388;4.928;2022-11-15T13:36:53;13.70;99.90
14172;DHT22;7165;52.388;4.928;2022-11-15T13:39:28;13.70;99.90
14172;DHT22;7165;52.388;4.928;2022-11-15T13:41:56;13.70;99.90
14172;DHT22;7165;52.388;4.928;2022-11-15T13:44:24;13.70;99.90
14172;DHT22;7165;52.388;4.928;2022-11-15T13:47:02;13.70;99.90
14172;DHT22;7165;52.388;4.928;2022-11-15T13:49:30;13.70;99.90
14172;DHT22;7165;52.388;4.928;2022-11-15T13:51:58;13.60;99.90
14172;DHT22;7165;52.388;4.928;2022-11-15T13:54:30;13.60;99.90
14172;DHT22;7165;52.388;4.928;2022-11-15T13:56:59;13.50;99.90
14172;DHT22;7165;52.388;4.928;2022-11-15T13:59:29;13.50;99.90
14172;DHT22;7165;52.388;4.928;2022-11-15T14:01:59;13.50;99.90
14172;DHT22;7165;52.388;4.928;2022-11-15T14:04:28;13.40;99.90
14172;DHT22;7165;52.388;4.928;2022-11-15T14:06:59;13.30;99.90
14172;DHT22;7165;52.388;4.928;2022-11-15T14:09:37;13.30;99.90
14172;DHT22;7165;52.388;4.928;2022-11-15T14:12:23;13.30;99.90
14172;DHT22;7165;52.388;4.928;2022-11-15T14:14:50;13.20;99.90
14172;DHT22;7165;52.388;4.928;2022-11-15T14:17:20;13.10;99.90
14172;DHT22;7165;52.388;4.928;2022-11-15T14:19:49;13.10;99.90
14172;DHT22;7165;52.388;4.928;2022-11-15T14:22:19;13.00;99.90
14172;DHT22;7165;52.388;4.928;2022-11-15T14:25:14;13.00;99.90
14172;DHT22;7165;52.388;4.928;2022-11-15T14:27:42;12.90;99.90
14172;DHT22;7165;52.388;4.928;2022-11-15T14:30:13;12.90;99.90
14172;DHT22;7165;52.388;4.928;2022-11-15T14:32:44;12.90;99.90
14172;DHT22;7165;52.388;4.928;2022-11-15T14:35:15;12.80;99.90
14172;DHT22;7165;52.388;4.928;2022-11-15T14:37:42;12.80;99.90
14172;DHT22;7165;52.388;4.928;2022-11-15T14:40:13;12.80;99.90
14172;DHT22;7165;52.388;4.928;2022-11-15T14:42:41;12.70;99.90
14172;DHT22;7165;52.388;4.928;2022-11-15T14:45:11;12.70;99.90
14172;DHT22;7165;52.388;4.928;2022-11-15T14:47:38;12.70;99.90
14172;DHT22;7165;52.388;4.928;2022-11-15T14:50:06;12.60;99.90
14172;DHT22;7165;52.388;4.928;2022-11-15T14:52:33;12.60;99.90
14172;DHT22;7165;52.388;4.928;2022-11-15T14:55:02;12.60;99.90
14172;DHT22;7165;52.388;4.928;2022-11-15T14:57:30;12.60;99.90
14172;DHT22;7165;52.388;4.928;2022-11-15T14:59:57;12.60;99.90
14172;DHT22;7165;52.388;4.928;2022-11-15T15:02:26;12.50;99.90
14172;DHT22;7165;52.388;4.928;2022-11-15T15:04:53;12.60;99.90
14172;DHT22;7165;52.388;4.928;2022-11-15T15:07:20;12.50;99.90
14172;DHT22;7165;52.388;4.928;2022-11-15T15:09:47;12.50;99.90
14172;DHT22;7165;52.388;4.928;2022-11-15T15:12:16;12.50;99.90
14172;DHT22;7165;52.388;4.928;2022-11-15T15:14:45;12.50;99.90
14172;DHT22;7165;52.388;4.928;2022-11-15T15:17:12;12.50;99.90
14172;DHT22;7165;52.388;4.928;2022-11-15T15:19:39;12.50;99.90
14172;DHT22;7165;52.388;4.928;2022-11-15T15:22:08;12.50;99.90
14172;DHT22;7165;52.388;4.928;2022-11-15T15:24:35;12.40;99.90
14172;DHT22;7165;52.388;4.928;2022-11-15T15:27:02;12.40;99.90
14172;DHT22;7165;52.388;4.928;2022-11-15T15:29:28;12.40;99.90
14172;DHT22;7165;52.388;4.928;2022-11-15T15:31:56;12.40;99.90
14172;DHT22;7165;52.388;4.928;2022-11-15T15:34:23;12.40;99.90
14172;DHT22;7165;52.388;4.928;2022-11-15T15:37:06;12.40;99.90
14172;DHT22;7165;52.388;4.928;2022-11-15T15:39:33;12.40;99.90
14172;DHT22;7165;52.388;4.928;2022-11-15T15:42:00;12.30;99.90
14172;DHT22;7165;52.388;4.928;2022-11-15T15:44:26;12.40;99.90
14172;DHT22;7165;52.388;4.928;2022-11-15T15:46:53;12.40;99.90
14172;DHT22;7165;52.388;4.928;2022-11-15T15:49:21;12.40;99.90
14172;DHT22;7165;52.388;4.928;2022-11-15T15:51:48;12.40;99.90
14172;DHT22;7165;52.388;4.928;2022-11-15T15:54:14;12.40;99.90
14172;DHT22;7165;52.388;4.928;2022-11-15T15:56:41;12.40;99.90
14172;DHT22;7165;52.388;4.928;2022-11-15T15:59:07;12.40;99.90
14172;DHT22;7165;52.388;4.928;2022-11-15T16:01:34;12.40;99.90
14172;DHT22;7165;52.388;4.928;2022-11-15T16:04:01;12.40;99.90
14172;DHT22;7165;52.388;4.928;2022-11-15T16:06:37;12.40;99.90
14172;DHT22;7165;52.388;4.928;2022-11-15T16:09:05;12.50;99.90
14172;DHT22;7165;52.388;4.928;2022-11-15T16:11:31;12.40;99.90
14172;DHT22;7165;52.388;4.928;2022-11-15T16:13:58;12.50;99.90
14172;DHT22;7165;52.388;4.928;2022-11-15T16:16:25;12.50;99.90
14172;DHT22;7165;52.388;4.928;2022-11-15T16:18:52;12.50;99.90
14172;DHT22;7165;52.388;4.928;2022-11-15T16:21:19;12.50;99.90